AAR8902 RKPC-RKSS
Flight info
| Callsign | AAR8902 |
|---|---|
| Flight time | 0h 53m |
| Altitude | 29000 |
| Route | KAMIT2E KAMIT Y722 OLMEN OLMEN2U |
| Aircraft | A321/M-SDE3FGHIRWY/LB1 |
Departure
| Time | 2026-04-27 15:12 |
|---|---|
| Airport | Jeju International Airport (RKPC) |
Arrival
| Time | 2026-04-27 16:05 |
|---|---|
| Airport | Gimpo International Airport (RKSS) |
| Time | Latitude | Longitude | Altitude | Speed | Heading |
|---|---|---|---|---|---|
| 2026-04-27 14:44 | 33.50776 | 126.49299 | 92 ft | 0 kts | 182° |
| 2026-04-27 14:59 | 33.50778 | 126.49299 | 93 ft | 1 kts | 182° |
| 2026-04-27 14:59 | 33.50796 | 126.49300 | 91 ft | 3 kts | 182° |
| 2026-04-27 14:59 | 33.50816 | 126.49301 | 90 ft | 3 kts | 184° |
| 2026-04-27 15:00 | 33.50836 | 126.49303 | 91 ft | 3 kts | 191° |
| 2026-04-27 15:00 | 33.50855 | 126.49309 | 90 ft | 3 kts | 200° |
| 2026-04-27 15:00 | 33.50874 | 126.49319 | 90 ft | 3 kts | 212° |
| 2026-04-27 15:00 | 33.50890 | 126.49333 | 90 ft | 3 kts | 225° |
| 2026-04-27 15:01 | 33.50903 | 126.49351 | 91 ft | 3 kts | 237° |
| 2026-04-27 15:01 | 33.50913 | 126.49369 | 91 ft | 3 kts | 238° |
| 2026-04-27 15:01 | 33.50920 | 126.49383 | 91 ft | 0 kts | 238° |
| 2026-04-27 15:05 | 33.50917 | 126.49377 | 91 ft | 3 kts | 239° |
| 2026-04-27 15:05 | 33.50898 | 126.49339 | 91 ft | 7 kts | 238° |
| 2026-04-27 15:05 | 33.50868 | 126.49281 | 93 ft | 9 kts | 238° |
| 2026-04-27 15:05 | 33.50829 | 126.49206 | 91 ft | 12 kts | 238° |
| 2026-04-27 15:06 | 33.50783 | 126.49114 | 92 ft | 14 kts | 238° |
| 2026-04-27 15:06 | 33.50729 | 126.49011 | 90 ft | 15 kts | 238° |
| 2026-04-27 15:06 | 33.50720 | 126.48899 | 91 ft | 15 kts | 325° |
| 2026-04-27 15:06 | 33.50798 | 126.48833 | 90 ft | 14 kts | 297° |
| 2026-04-27 15:07 | 33.50765 | 126.48731 | 89 ft | 14 kts | 238° |
| 2026-04-27 15:07 | 33.50711 | 126.48626 | 90 ft | 15 kts | 238° |
| 2026-04-27 15:07 | 33.50653 | 126.48513 | 92 ft | 16 kts | 238° |
| 2026-04-27 15:07 | 33.50592 | 126.48393 | 91 ft | 17 kts | 238° |
| 2026-04-27 15:08 | 33.50527 | 126.48265 | 94 ft | 18 kts | 239° |
| 2026-04-27 15:08 | 33.50458 | 126.48130 | 92 ft | 19 kts | 236° |
| 2026-04-27 15:08 | 33.50385 | 126.47991 | 93 ft | 20 kts | 238° |
| 2026-04-27 15:08 | 33.50311 | 126.47847 | 93 ft | 21 kts | 238° |
| 2026-04-27 15:09 | 33.50234 | 126.47698 | 94 ft | 21 kts | 238° |
| 2026-04-27 15:09 | 33.50155 | 126.47543 | 95 ft | 22 kts | 238° |
| 2026-04-27 15:09 | 33.50072 | 126.47382 | 96 ft | 23 kts | 238° |
| 2026-04-27 15:09 | 33.49988 | 126.47216 | 97 ft | 24 kts | 238° |
| 2026-04-27 15:10 | 33.49933 | 126.47110 | 98 ft | 23 kts | 238° |
| 2026-04-27 15:10 | 33.49891 | 126.46935 | 99 ft | 13 kts | 315° |
| 2026-04-27 15:10 | 33.49955 | 126.46890 | 98 ft | 10 kts | 330° |
| 2026-04-27 15:10 | 33.50024 | 126.46902 | 98 ft | 12 kts | 50° |
| 2026-04-27 15:11 | 33.50044 | 126.46939 | 98 ft | 3 kts | 56° |
| 2026-04-27 15:11 | 33.50075 | 126.47001 | 96 ft | 34 kts | 60° |
| 2026-04-27 15:11 | 33.50338 | 126.47530 | 97 ft | 111 kts | 60° |
| 2026-04-27 15:11 | 33.50855 | 126.48533 | 130 ft | 166 kts | 59° |
| 2026-04-27 15:12 | 33.51472 | 126.49676 | 918 ft | 159 kts | 57° |
| 2026-04-27 15:12 | 33.52108 | 126.50780 | 1624 ft | 165 kts | 46° |
| 2026-04-27 15:12 | 33.52934 | 126.51784 | 2198 ft | 172 kts | 42° |
| 2026-04-27 15:12 | 33.53803 | 126.52787 | 2757 ft | 175 kts | 40° |
| 2026-04-27 15:13 | 33.54718 | 126.53808 | 3253 ft | 183 kts | 38° |
| 2026-04-27 15:13 | 33.55690 | 126.54831 | 3792 ft | 188 kts | 36° |
| 2026-04-27 15:13 | 33.56725 | 126.55922 | 4120 ft | 211 kts | 38° |
| 2026-04-27 15:13 | 33.57872 | 126.57176 | 4445 ft | 235 kts | 39° |
| 2026-04-27 15:14 | 33.59128 | 126.58573 | 4807 ft | 259 kts | 39° |
| 2026-04-27 15:14 | 33.60502 | 126.60119 | 5184 ft | 281 kts | 40° |
| 2026-04-27 15:14 | 33.61945 | 126.61757 | 5838 ft | 289 kts | 40° |
| 2026-04-27 15:14 | 33.63412 | 126.63433 | 6609 ft | 294 kts | 40° |
| 2026-04-27 15:15 | 33.64899 | 126.65138 | 7360 ft | 297 kts | 40° |
| 2026-04-27 15:15 | 33.66403 | 126.66861 | 8126 ft | 301 kts | 40° |
| 2026-04-27 15:15 | 33.67932 | 126.68608 | 8899 ft | 305 kts | 40° |
| 2026-04-27 15:15 | 33.69543 | 126.70211 | 9632 ft | 304 kts | 26° |
| 2026-04-27 15:16 | 33.71510 | 126.71145 | 10334 ft | 301 kts | 6° |
| 2026-04-27 15:16 | 33.73650 | 126.71485 | 10546 ft | 321 kts | 1° |
| 2026-04-27 15:16 | 33.75958 | 126.71741 | 10720 ft | 344 kts | 0° |
| 2026-04-27 15:16 | 33.78370 | 126.71976 | 11087 ft | 357 kts | 0° |
| 2026-04-27 15:17 | 33.80865 | 126.72218 | 11710 ft | 363 kts | 0° |
| 2026-04-27 15:17 | 33.83401 | 126.72477 | 12381 ft | 367 kts | 1° |
| 2026-04-27 15:17 | 33.85955 | 126.72751 | 13063 ft | 371 kts | 1° |
| 2026-04-27 15:17 | 33.88544 | 126.73036 | 13748 ft | 376 kts | 1° |
| 2026-04-27 15:18 | 33.91160 | 126.73328 | 14374 ft | 379 kts | 1° |
| 2026-04-27 15:18 | 33.93796 | 126.73626 | 15025 ft | 382 kts | 1° |
| 2026-04-27 15:18 | 33.96450 | 126.73926 | 15678 ft | 385 kts | 0° |
| 2026-04-27 15:18 | 33.99126 | 126.74228 | 16344 ft | 387 kts | 0° |
| 2026-04-27 15:19 | 34.01817 | 126.74529 | 17001 ft | 390 kts | 0° |
| 2026-04-27 15:19 | 34.04530 | 126.74831 | 17655 ft | 393 kts | 360° |
| 2026-04-27 15:19 | 34.07262 | 126.75134 | 18292 ft | 396 kts | 360° |
| 2026-04-27 15:19 | 34.10015 | 126.75437 | 18825 ft | 399 kts | 359° |
| 2026-04-27 15:20 | 34.12792 | 126.75744 | 19328 ft | 403 kts | 359° |
| 2026-04-27 15:20 | 34.15601 | 126.76056 | 19831 ft | 408 kts | 359° |
| 2026-04-27 15:20 | 34.18442 | 126.76369 | 20341 ft | 412 kts | 358° |
| 2026-04-27 15:20 | 34.21313 | 126.76690 | 20829 ft | 416 kts | 358° |
| 2026-04-27 15:21 | 34.24170 | 126.77009 | 21306 ft | 420 kts | 358° |
| 2026-04-27 15:21 | 34.27133 | 126.77338 | 21799 ft | 424 kts | 358° |
| 2026-04-27 15:21 | 34.30074 | 126.77658 | 22273 ft | 427 kts | 357° |
| 2026-04-27 15:21 | 34.33007 | 126.77971 | 22730 ft | 430 kts | 357° |
| 2026-04-27 15:22 | 34.36002 | 126.78288 | 23187 ft | 434 kts | 356° |
| 2026-04-27 15:22 | 34.39026 | 126.78608 | 23628 ft | 437 kts | 356° |
| 2026-04-27 15:22 | 34.42065 | 126.78929 | 24001 ft | 440 kts | 356° |
| 2026-04-27 15:22 | 34.45125 | 126.79253 | 24385 ft | 443 kts | 356° |
| 2026-04-27 15:23 | 34.48202 | 126.79577 | 24786 ft | 445 kts | 356° |
| 2026-04-27 15:23 | 34.51300 | 126.79906 | 25177 ft | 448 kts | 356° |
| 2026-04-27 15:23 | 34.54409 | 126.80239 | 25571 ft | 450 kts | 356° |
| 2026-04-27 15:23 | 34.57547 | 126.80577 | 25955 ft | 453 kts | 356° |
| 2026-04-27 15:24 | 34.60694 | 126.80917 | 26346 ft | 456 kts | 355° |
| 2026-04-27 15:24 | 34.63862 | 126.81256 | 26701 ft | 458 kts | 355° |
| 2026-04-27 15:24 | 34.67042 | 126.81596 | 27079 ft | 460 kts | 355° |
| 2026-04-27 15:24 | 34.70243 | 126.81937 | 27436 ft | 463 kts | 355° |
| 2026-04-27 15:25 | 34.73462 | 126.82280 | 27807 ft | 465 kts | 355° |
| 2026-04-27 15:25 | 34.76696 | 126.82625 | 28160 ft | 468 kts | 355° |
| 2026-04-27 15:25 | 34.79947 | 126.82975 | 28537 ft | 470 kts | 355° |
| 2026-04-27 15:25 | 34.83206 | 126.83326 | 28891 ft | 472 kts | 354° |
| 2026-04-27 15:26 | 34.89678 | 126.84033 | 28996 ft | 459 kts | 354° |
| 2026-04-27 15:26 | 34.95994 | 126.84728 | 28998 ft | 455 kts | 354° |
| 2026-04-27 15:27 | 35.02296 | 126.85402 | 28997 ft | 454 kts | 354° |
| 2026-04-27 15:27 | 35.08582 | 126.86079 | 28998 ft | 454 kts | 354° |
| 2026-04-27 15:28 | 35.14875 | 126.86762 | 29005 ft | 453 kts | 354° |
| 2026-04-27 15:28 | 35.21160 | 126.87448 | 29015 ft | 453 kts | 353° |
| 2026-04-27 15:29 | 35.26400 | 126.88010 | 29015 ft | 453 kts | 353° |
| 2026-04-27 15:29 | 35.30050 | 126.88404 | 29011 ft | 454 kts | 353° |
| 2026-04-27 15:30 | 35.33745 | 126.88805 | 29009 ft | 453 kts | 353° |
| 2026-04-27 15:30 | 35.40028 | 126.89497 | 29005 ft | 453 kts | 353° |
| 2026-04-27 15:31 | 35.46311 | 126.90180 | 29012 ft | 453 kts | 353° |
| 2026-04-27 15:31 | 35.52598 | 126.90859 | 29021 ft | 452 kts | 353° |
| 2026-04-27 15:32 | 35.58859 | 126.91542 | 29019 ft | 452 kts | 352° |
| 2026-04-27 15:32 | 35.65112 | 126.92228 | 29021 ft | 451 kts | 352° |
| 2026-04-27 15:33 | 35.71358 | 126.92912 | 29014 ft | 450 kts | 352° |
| 2026-04-27 15:33 | 35.77585 | 126.93597 | 29008 ft | 449 kts | 352° |
| 2026-04-27 15:34 | 35.83810 | 126.94289 | 29011 ft | 448 kts | 352° |
| 2026-04-27 15:34 | 35.90015 | 126.94976 | 29008 ft | 447 kts | 352° |
| 2026-04-27 15:35 | 35.96202 | 126.95653 | 29011 ft | 446 kts | 352° |
| 2026-04-27 15:35 | 36.02383 | 126.96334 | 29018 ft | 446 kts | 352° |
| 2026-04-27 15:36 | 36.08562 | 126.97019 | 29018 ft | 445 kts | 351° |
| 2026-04-27 15:36 | 36.14735 | 126.97705 | 29011 ft | 445 kts | 351° |
| 2026-04-27 15:37 | 36.20850 | 126.98385 | 29015 ft | 444 kts | 351° |
| 2026-04-27 15:37 | 36.26999 | 126.99073 | 29004 ft | 443 kts | 351° |
| 2026-04-27 15:38 | 36.33141 | 126.99752 | 28994 ft | 443 kts | 351° |
| 2026-04-27 15:38 | 36.39256 | 127.00347 | 28992 ft | 432 kts | 345° |
| 2026-04-27 15:39 | 36.45306 | 127.00124 | 28952 ft | 440 kts | 344° |
| 2026-04-27 15:39 | 36.51436 | 126.99888 | 28948 ft | 441 kts | 344° |
| 2026-04-27 15:40 | 36.57565 | 126.99669 | 28945 ft | 440 kts | 344° |
| 2026-04-27 15:40 | 36.63690 | 126.99459 | 28935 ft | 440 kts | 344° |
| 2026-04-27 15:41 | 36.69725 | 126.99471 | 28670 ft | 443 kts | 353° |
| 2026-04-27 15:41 | 36.72867 | 127.00339 | 28008 ft | 463 kts | 5° |
| 2026-04-27 15:41 | 36.75859 | 127.02050 | 27246 ft | 485 kts | 19° |
| 2026-04-27 15:42 | 36.78592 | 127.04655 | 26572 ft | 502 kts | 33° |
| 2026-04-27 15:42 | 36.81127 | 127.07625 | 26019 ft | 497 kts | 33° |
| 2026-04-27 15:42 | 36.83642 | 127.10557 | 25505 ft | 491 kts | 33° |
| 2026-04-27 15:42 | 36.86132 | 127.13436 | 24996 ft | 485 kts | 33° |
| 2026-04-27 15:43 | 36.88602 | 127.16277 | 24501 ft | 479 kts | 33° |
| 2026-04-27 15:43 | 36.91041 | 127.19077 | 24008 ft | 474 kts | 33° |
| 2026-04-27 15:43 | 36.93454 | 127.21840 | 23532 ft | 468 kts | 33° |
| 2026-04-27 15:43 | 36.95839 | 127.24573 | 22950 ft | 463 kts | 34° |
| 2026-04-27 15:44 | 36.98198 | 127.27285 | 22353 ft | 459 kts | 34° |
| 2026-04-27 15:44 | 37.00532 | 127.29980 | 21768 ft | 455 kts | 34° |
| 2026-04-27 15:44 | 37.02846 | 127.32660 | 21213 ft | 451 kts | 35° |
| 2026-04-27 15:44 | 37.05110 | 127.35299 | 21051 ft | 438 kts | 35° |
| 2026-04-27 15:45 | 37.07301 | 127.37869 | 20914 ft | 425 kts | 35° |
| 2026-04-27 15:45 | 37.09429 | 127.40367 | 20787 ft | 413 kts | 34° |
| 2026-04-27 15:45 | 37.11623 | 127.42499 | 20665 ft | 386 kts | 20° |
| 2026-04-27 15:45 | 37.13981 | 127.43808 | 20535 ft | 357 kts | 6° |
| 2026-04-27 15:46 | 37.16335 | 127.44378 | 20269 ft | 336 kts | 352° |
| 2026-04-27 15:46 | 37.18601 | 127.44414 | 19901 ft | 327 kts | 348° |
| 2026-04-27 15:46 | 37.20829 | 127.44079 | 19493 ft | 311 kts | 334° |
| 2026-04-27 15:46 | 37.22762 | 127.43113 | 19074 ft | 297 kts | 321° |
| 2026-04-27 15:47 | 37.24392 | 127.41617 | 18644 ft | 286 kts | 308° |
| 2026-04-27 15:47 | 37.25650 | 127.39737 | 18190 ft | 279 kts | 298° |
| 2026-04-27 15:47 | 37.25966 | 127.39161 | 18043 ft | 280 kts | 298° |
| 2026-04-27 15:48 | 37.25970 | 127.39153 | 18042 ft | 280 kts | 298° |
| 2026-04-27 15:48 | 37.27095 | 127.37120 | 17665 ft | 276 kts | 298° |
| 2026-04-27 15:48 | 37.28195 | 127.35137 | 17165 ft | 278 kts | 298° |
| 2026-04-27 15:49 | 37.30400 | 127.31167 | 16313 ft | 276 kts | 298° |
| 2026-04-27 15:49 | 37.31496 | 127.29191 | 15919 ft | 275 kts | 298° |
| 2026-04-27 15:49 | 37.32586 | 127.27218 | 15549 ft | 274 kts | 298° |
| 2026-04-27 15:49 | 37.33666 | 127.25258 | 15221 ft | 271 kts | 298° |
| 2026-04-27 15:50 | 37.34736 | 127.23318 | 14851 ft | 270 kts | 298° |
| 2026-04-27 15:50 | 37.35787 | 127.21374 | 14475 ft | 266 kts | 294° |
| 2026-04-27 15:50 | 37.36519 | 127.19288 | 14111 ft | 259 kts | 282° |
| 2026-04-27 15:50 | 37.36928 | 127.17101 | 13751 ft | 257 kts | 279° |
| 2026-04-27 15:51 | 37.37323 | 127.14918 | 13348 ft | 256 kts | 279° |
| 2026-04-27 15:51 | 37.37722 | 127.12743 | 12950 ft | 255 kts | 279° |
| 2026-04-27 15:51 | 37.38123 | 127.10580 | 12547 ft | 254 kts | 279° |
| 2026-04-27 15:51 | 37.38522 | 127.08419 | 12151 ft | 253 kts | 279° |
| 2026-04-27 15:52 | 37.38912 | 127.06298 | 11743 ft | 252 kts | 279° |
| 2026-04-27 15:52 | 37.39310 | 127.04125 | 11302 ft | 252 kts | 279° |
| 2026-04-27 15:52 | 37.39697 | 127.02006 | 10942 ft | 251 kts | 279° |
| 2026-04-27 15:52 | 37.40086 | 126.99871 | 10628 ft | 249 kts | 279° |
| 2026-04-27 15:53 | 37.40471 | 126.97753 | 10308 ft | 249 kts | 279° |
| 2026-04-27 15:53 | 37.40856 | 126.95635 | 9973 ft | 248 kts | 279° |
| 2026-04-27 15:53 | 37.41240 | 126.93526 | 9583 ft | 248 kts | 280° |
| 2026-04-27 15:53 | 37.41842 | 126.91465 | 9104 ft | 254 kts | 289° |
| 2026-04-27 15:54 | 37.42568 | 126.89414 | 8569 ft | 259 kts | 289° |
| 2026-04-27 15:54 | 37.43302 | 126.87330 | 8085 ft | 261 kts | 289° |
| 2026-04-27 15:54 | 37.44025 | 126.85283 | 7966 ft | 251 kts | 289° |
| 2026-04-27 15:54 | 37.44729 | 126.83285 | 7931 ft | 249 kts | 289° |
| 2026-04-27 15:55 | 37.45425 | 126.81300 | 7575 ft | 248 kts | 289° |
| 2026-04-27 15:55 | 37.45876 | 126.79992 | 7326 ft | 247 kts | 287° |
| 2026-04-27 15:55 | 37.46681 | 126.77304 | 6987 ft | 243 kts | 285° |
| 2026-04-27 15:55 | 37.47243 | 126.75276 | 6977 ft | 247 kts | 285° |
| 2026-04-27 15:56 | 37.47799 | 126.73231 | 6975 ft | 247 kts | 284° |
| 2026-04-27 15:56 | 37.48358 | 126.71181 | 6981 ft | 248 kts | 285° |
| 2026-04-27 15:56 | 37.48784 | 126.69101 | 6978 ft | 244 kts | 275° |
| 2026-04-27 15:56 | 37.49006 | 126.66981 | 6914 ft | 243 kts | 275° |
| 2026-04-27 15:57 | 37.49235 | 126.64876 | 6561 ft | 242 kts | 275° |
| 2026-04-27 15:57 | 37.49469 | 126.62776 | 6199 ft | 242 kts | 275° |
| 2026-04-27 15:57 | 37.49794 | 126.60719 | 5614 ft | 239 kts | 287° |
| 2026-04-27 15:57 | 37.50544 | 126.58917 | 5284 ft | 227 kts | 302° |
| 2026-04-27 15:58 | 37.51579 | 126.57494 | 5025 ft | 213 kts | 310° |
| 2026-04-27 15:58 | 37.52623 | 126.56196 | 4776 ft | 211 kts | 309° |
| 2026-04-27 15:58 | 37.53665 | 126.54886 | 4530 ft | 210 kts | 310° |
| 2026-04-27 15:58 | 37.54693 | 126.53593 | 4268 ft | 208 kts | 310° |
| 2026-04-27 15:59 | 37.55805 | 126.52426 | 4042 ft | 209 kts | 329° |
| 2026-04-27 15:59 | 37.57231 | 126.52097 | 3970 ft | 216 kts | 1° |
| 2026-04-27 15:59 | 37.58630 | 126.52868 | 3972 ft | 229 kts | 37° |
| 2026-04-27 15:59 | 37.59781 | 126.54284 | 3980 ft | 231 kts | 41° |
| 2026-04-27 16:00 | 37.60531 | 126.55234 | 3980 ft | 231 kts | 41° |
| 2026-04-27 16:00 | 37.61668 | 126.56675 | 3976 ft | 231 kts | 41° |
| 2026-04-27 16:00 | 37.62800 | 126.58103 | 3856 ft | 228 kts | 41° |
| 2026-04-27 16:00 | 37.63898 | 126.59485 | 3628 ft | 220 kts | 41° |
| 2026-04-27 16:01 | 37.64964 | 126.60825 | 3397 ft | 213 kts | 41° |
| 2026-04-27 16:01 | 37.65938 | 126.62211 | 3098 ft | 212 kts | 57° |
| 2026-04-27 16:01 | 37.66318 | 126.64543 | 2759 ft | 200 kts | 100° |
| 2026-04-27 16:01 | 37.66058 | 126.65642 | 2641 ft | 188 kts | 118° |
| 2026-04-27 16:02 | 37.65297 | 126.66896 | 2428 ft | 176 kts | 141° |
| 2026-04-27 16:02 | 37.64447 | 126.67967 | 2215 ft | 168 kts | 140° |
| 2026-04-27 16:02 | 37.63646 | 126.68979 | 1969 ft | 157 kts | 142° |
| 2026-04-27 16:02 | 37.62890 | 126.69931 | 1765 ft | 151 kts | 142° |
| 2026-04-27 16:03 | 37.62156 | 126.70854 | 1558 ft | 148 kts | 142° |
| 2026-04-27 16:03 | 37.61435 | 126.71762 | 1353 ft | 146 kts | 142° |
| 2026-04-27 16:03 | 37.60715 | 126.72668 | 1175 ft | 144 kts | 141° |
| 2026-04-27 16:03 | 37.60011 | 126.73553 | 974 ft | 142 kts | 140° |
| 2026-04-27 16:04 | 37.59320 | 126.74418 | 784 ft | 139 kts | 139° |
| 2026-04-27 16:04 | 37.58633 | 126.75275 | 602 ft | 139 kts | 137° |
| 2026-04-27 16:04 | 37.57960 | 126.76113 | 439 ft | 139 kts | 135° |
| 2026-04-27 16:04 | 37.57362 | 126.76882 | 274 ft | 137 kts | 136° |
| 2026-04-27 16:05 | 37.56694 | 126.77719 | 97 ft | 135 kts | 136° |
| 2026-04-27 16:05 | 37.56100 | 126.78469 | 57 ft | 106 kts | 135° |
| 2026-04-27 16:05 | 37.55699 | 126.78973 | 58 ft | 56 kts | 135° |
| 2026-04-27 16:05 | 37.55511 | 126.79223 | 59 ft | 26 kts | 119° |
| 2026-04-27 16:06 | 37.55451 | 126.79415 | 62 ft | 22 kts | 105° |
| 2026-04-27 16:06 | 37.55429 | 126.79553 | 65 ft | 14 kts | 91° |
| 2026-04-27 16:06 | 37.55460 | 126.79671 | 61 ft | 15 kts | 57° |
| 2026-04-27 16:06 | 37.55498 | 126.79797 | 63 ft | 17 kts | 96° |
| 2026-04-27 16:07 | 37.55454 | 126.79948 | 61 ft | 16 kts | 111° |
| 2026-04-27 16:07 | 37.55427 | 126.80069 | 63 ft | 14 kts | 94° |
| 2026-04-27 16:07 | 37.55466 | 126.80177 | 60 ft | 14 kts | 46° |
| 2026-04-27 16:07 | 37.55520 | 126.80243 | 59 ft | 11 kts | 45° |
| 2026-04-27 16:08 | 37.55554 | 126.80286 | 67 ft | 4 kts | 45° |
| 2026-04-27 16:08 | 37.55569 | 126.80318 | 57 ft | 5 kts | 76° |
| 2026-04-27 16:08 | 37.55584 | 126.80335 | 64 ft | 2 kts | 339° |
| 2026-04-27 16:08 | 37.55604 | 126.80326 | 62 ft | 4 kts | 355° |
| 2026-04-27 16:09 | 37.55628 | 126.80347 | 59 ft | 5 kts | 45° |
| 2026-04-27 16:09 | 37.55682 | 126.80415 | 67 ft | 2 kts | 45° |
| 2026-04-27 16:09 | 37.55689 | 126.80424 | 64 ft | 0 kts | 45° |